Airfield :
LOGIN :

Register | Disclaimer

   EN    FR    IT 

 










Legend :    VFR   Marginal VFR   IFR   Intensive IFR   Very Intensive IFR
Visi :
Ceiling :
>= 8 km
>= 3000ft
5 to 8 km
1000 to 3000 ft
1500m to 5 km
500 to 1000 ft
800 to 1500m
200 to 500 ft
< 800m
< 200 ft
Symbols :   Thunderstorms  Fog  Heavy snow  Heavy precipitations  Wind > 20 kt
SIGMETs :     Misc.  Thunderstorms  Icing  Turbulence  Mountain Waves  Volcanic Ashes







- Airport Elevation : 2945 ft
- IATA code : RGS


LEBG - Burgos

CURRENT METAR :
  • 251800Z 05009KT 9999 SCT025 SCT035CB 08/07 Q1009 RESHRA

EXPIRED METARs :
  • 251730Z 03013KT 4500 -SHRA SCT013 SCT030CB 08/07 Q1009
  • 251712Z 03012KT 4500 SHRA SCT013 SCT030CB 08/07 Q1009
  • 251630Z 01015KT 9999 SCT030 FEW035CB 11/06 Q1008
  • 251600Z 36018KT 330V040 9999 -SHRA SCT025 FEW035CB 11/07 Q1007
  • 251530Z 01014KT 350V050 9999 FEW040TCU SCT060 13/07 Q1007

TAF TAF LEBG
Valid from the 25 at 18:00 until the 26 at 03:00 UTC


251700Z 2518/2603 02017KT 9999 SCT040
PROB30
TEMPO 2518/2519 SHRA SCT030TCU
No reported NOTAMs for that airfield.
3 SIGMETs reported for the Madrid FIR (LECM) :
 
Embedded thunderstorms
LECM SIGMET 12 VALID 251800/252000 LEVA
LECM MADRID FIR/UIR EMBD TS OBS AT 1733Z E OF LINE N4120 W00450 - N3710 W002 TOP FL340 MOV NE NC=
Embedded thunderstorms
LECM SIGMET 11 VALID 251637/251800 LEVA
LECM MADRID FIR/UIR EMBD TS OBS AT 1616Z WI N4120 W004 - N4020 W00320 - N3940 W005 - N4050 W00550 TOP FL340 MOV NE NC=
Embedded thunderstorms
LECM SIGMET 10 VALID 251600/251800 LEVA
LECM MADRID FIR/UIR EMBD TS OBS AT 1538Z E OF LINE N4310 W00410 - N3730 W00230 TOP FL340 MOV NE NC=



MET'MAP, your aeronautical weather chart ! - Copyright ORBIFLY December 2007 - Disclaimer

ORBIFLY MET'MAP TEAM :

Programming & Development : Alexandra Zaïnal
Concept & Development : Baudouin d'Aumeries
Co-Development & Prog : Marc-Olivier Méhu
Technical & hardware support : Manuel Goepfert

Contact : metmap@orbifly.com




SOURCES & CREDITS :

   NOAA